sensor_id;sensor_type;location;lat;lon;timestamp;temperature;humidity
15426;DHT22;7812;50.072;7.036;2023-09-19T00:00:20;15.90;99.90
15426;DHT22;7812;50.072;7.036;2023-09-19T00:02:53;15.90;99.90
15426;DHT22;7812;50.072;7.036;2023-09-19T00:05:19;15.80;99.90
15426;DHT22;7812;50.072;7.036;2023-09-19T00:07:58;15.80;99.90
15426;DHT22;7812;50.072;7.036;2023-09-19T00:10:27;15.70;99.90
15426;DHT22;7812;50.072;7.036;2023-09-19T00:12:59;15.60;99.90
15426;DHT22;7812;50.072;7.036;2023-09-19T00:15:26;15.60;99.90
15426;DHT22;7812;50.072;7.036;2023-09-19T00:17:54;15.50;99.90
15426;DHT22;7812;50.072;7.036;2023-09-19T00:20:20;15.40;99.90
15426;DHT22;7812;50.072;7.036;2023-09-19T00:22:51;15.30;99.90
15426;DHT22;7812;50.072;7.036;2023-09-19T00:25:19;15.30;99.90
15426;DHT22;7812;50.072;7.036;2023-09-19T00:27:46;15.20;99.90
15426;DHT22;7812;50.072;7.036;2023-09-19T00:30:16;15.10;99.90
15426;DHT22;7812;50.072;7.036;2023-09-19T00:32:47;15.00;99.90
15426;DHT22;7812;50.072;7.036;2023-09-19T00:35:13;15.00;99.90
15426;DHT22;7812;50.072;7.036;2023-09-19T00:37:40;14.90;99.90
15426;DHT22;7812;50.072;7.036;2023-09-19T00:40:07;14.90;99.90
15426;DHT22;7812;50.072;7.036;2023-09-19T00:42:38;14.80;99.90
15426;DHT22;7812;50.072;7.036;2023-09-19T00:45:05;14.70;99.90
15426;DHT22;7812;50.072;7.036;2023-09-19T00:47:31;14.70;99.90
15426;DHT22;7812;50.072;7.036;2023-09-19T00:49:57;14.70;99.90
15426;DHT22;7812;50.072;7.036;2023-09-19T00:52:23;14.60;99.90
15426;DHT22;7812;50.072;7.036;2023-09-19T00:54:50;14.60;99.90
15426;DHT22;7812;50.072;7.036;2023-09-19T00:57:16;14.60;99.90
15426;DHT22;7812;50.072;7.036;2023-09-19T00:59:42;14.50;99.90
15426;DHT22;7812;50.072;7.036;2023-09-19T01:02:08;14.50;99.90
15426;DHT22;7812;50.072;7.036;2023-09-19T01:04:34;14.50;99.90
15426;DHT22;7812;50.072;7.036;2023-09-19T01:07:00;14.40;99.90
15426;DHT22;7812;50.072;7.036;2023-09-19T01:09:26;14.40;99.90
15426;DHT22;7812;50.072;7.036;2023-09-19T01:11:58;14.30;99.90
15426;DHT22;7812;50.072;7.036;2023-09-19T01:17:18;14.30;99.90
15426;DHT22;7812;50.072;7.036;2023-09-19T01:20:13;14.20;99.90
15426;DHT22;7812;50.072;7.036;2023-09-19T01:22:48;14.30;99.90
15426;DHT22;7812;50.072;7.036;2023-09-19T01:30:47;14.20;99.90
15426;DHT22;7812;50.072;7.036;2023-09-19T01:33:19;14.20;99.90
15426;DHT22;7812;50.072;7.036;2023-09-19T01:35:45;14.20;99.90
15426;DHT22;7812;50.072;7.036;2023-09-19T01:38:11;14.10;99.90
15426;DHT22;7812;50.072;7.036;2023-09-19T01:41:03;14.00;99.90
15426;DHT22;7812;50.072;7.036;2023-09-19T01:43:36;13.90;99.90
15426;DHT22;7812;50.072;7.036;2023-09-19T01:51:22;13.90;99.90
15426;DHT22;7812;50.072;7.036;2023-09-19T01:53:55;13.90;99.90
15426;DHT22;7812;50.072;7.036;2023-09-19T01:56:50;13.90;99.90
15426;DHT22;7812;50.072;7.036;2023-09-19T01:59:22;13.90;99.90
15426;DHT22;7812;50.072;7.036;2023-09-19T02:01:51;13.80;99.90
15426;DHT22;7812;50.072;7.036;2023-09-19T02:04:17;13.80;99.90
15426;DHT22;7812;50.072;7.036;2023-09-19T02:06:43;13.90;99.90
15426;DHT22;7812;50.072;7.036;2023-09-19T02:09:08;13.90;99.90
15426;DHT22;7812;50.072;7.036;2023-09-19T02:11:35;13.80;99.90
15426;DHT22;7812;50.072;7.036;2023-09-19T02:14:02;13.80;99.90
15426;DHT22;7812;50.072;7.036;2023-09-19T02:16:29;13.80;99.90
15426;DHT22;7812;50.072;7.036;2023-09-19T02:18:56;13.90;99.90
15426;DHT22;7812;50.072;7.036;2023-09-19T02:21:22;14.10;99.90
15426;DHT22;7812;50.072;7.036;2023-09-19T02:23:48;14.30;99.90
15426;DHT22;7812;50.072;7.036;2023-09-19T02:26:13;14.30;99.90
15426;DHT22;7812;50.072;7.036;2023-09-19T02:28:40;14.40;99.90
15426;DHT22;7812;50.072;7.036;2023-09-19T02:31:06;14.40;99.90
15426;DHT22;7812;50.072;7.036;2023-09-19T02:33:31;14.50;99.90
15426;DHT22;7812;50.072;7.036;2023-09-19T02:35:58;14.60;99.90
15426;DHT22;7812;50.072;7.036;2023-09-19T02:38:25;14.60;99.90
15426;DHT22;7812;50.072;7.036;2023-09-19T02:40:52;14.70;99.90
15426;DHT22;7812;50.072;7.036;2023-09-19T02:43:18;14.60;99.90
15426;DHT22;7812;50.072;7.036;2023-09-19T02:45:45;14.60;99.90
15426;DHT22;7812;50.072;7.036;2023-09-19T02:48:12;14.60;99.90
15426;DHT22;7812;50.072;7.036;2023-09-19T02:50:38;14.70;99.90
15426;DHT22;7812;50.072;7.036;2023-09-19T02:53:05;14.70;99.90
15426;DHT22;7812;50.072;7.036;2023-09-19T02:55:32;14.70;99.90
15426;DHT22;7812;50.072;7.036;2023-09-19T02:57:58;14.70;99.90
15426;DHT22;7812;50.072;7.036;2023-09-19T03:00:24;14.70;99.90
15426;DHT22;7812;50.072;7.036;2023-09-19T03:02:52;14.70;99.90
15426;DHT22;7812;50.072;7.036;2023-09-19T03:05:19;14.70;99.90
15426;DHT22;7812;50.072;7.036;2023-09-19T03:07:47;14.70;99.90
15426;DHT22;7812;50.072;7.036;2023-09-19T03:10:17;14.70;99.90
15426;DHT22;7812;50.072;7.036;2023-09-19T03:12:43;14.60;99.90
15426;DHT22;7812;50.072;7.036;2023-09-19T03:15:09;14.60;99.90
15426;DHT22;7812;50.072;7.036;2023-09-19T03:17:35;14.60;99.90
15426;DHT22;7812;50.072;7.036;2023-09-19T03:20:02;14.60;99.90
15426;DHT22;7812;50.072;7.036;2023-09-19T03:22:34;14.60;99.90
15426;DHT22;7812;50.072;7.036;2023-09-19T03:25:00;14.70;99.90
15426;DHT22;7812;50.072;7.036;2023-09-19T03:27:26;14.60;99.90
15426;DHT22;7812;50.072;7.036;2023-09-19T03:29:52;14.70;99.90
15426;DHT22;7812;50.072;7.036;2023-09-19T03:32:19;14.70;99.90
15426;DHT22;7812;50.072;7.036;2023-09-19T03:34:45;14.70;99.90
15426;DHT22;7812;50.072;7.036;2023-09-19T03:37:14;14.70;99.90
15426;DHT22;7812;50.072;7.036;2023-09-19T03:39:40;14.60;99.90
15426;DHT22;7812;50.072;7.036;2023-09-19T03:42:05;14.60;99.90
15426;DHT22;7812;50.072;7.036;2023-09-19T03:44:32;14.60;99.90
15426;DHT22;7812;50.072;7.036;2023-09-19T03:46:58;14.60;99.90
15426;DHT22;7812;50.072;7.036;2023-09-19T03:49:24;14.60;99.90
15426;DHT22;7812;50.072;7.036;2023-09-19T03:51:50;14.60;99.90
15426;DHT22;7812;50.072;7.036;2023-09-19T03:54:15;14.50;99.90
15426;DHT22;7812;50.072;7.036;2023-09-19T03:56:42;14.50;99.90
15426;DHT22;7812;50.072;7.036;2023-09-19T03:59:09;14.60;99.90
15426;DHT22;7812;50.072;7.036;2023-09-19T04:01:35;14.60;99.90
15426;DHT22;7812;50.072;7.036;2023-09-19T04:04:00;14.50;99.90
15426;DHT22;7812;50.072;7.036;2023-09-19T04:06:34;14.50;99.90
15426;DHT22;7812;50.072;7.036;2023-09-19T04:09:03;14.50;99.90
15426;DHT22;7812;50.072;7.036;2023-09-19T04:11:32;14.50;99.90
15426;DHT22;7812;50.072;7.036;2023-09-19T04:13:59;14.50;99.90
15426;DHT22;7812;50.072;7.036;2023-09-19T04:16:25;14.50;99.90
15426;DHT22;7812;50.072;7.036;2023-09-19T04:18:50;14.50;99.90
15426;DHT22;7812;50.072;7.036;2023-09-19T04:21:16;14.40;99.90
15426;DHT22;7812;50.072;7.036;2023-09-19T04:23:42;14.40;99.90
15426;DHT22;7812;50.072;7.036;2023-09-19T04:26:08;14.40;99.90
15426;DHT22;7812;50.072;7.036;2023-09-19T04:28:34;14.40;99.90
15426;DHT22;7812;50.072;7.036;2023-09-19T04:31:03;14.40;99.90
15426;DHT22;7812;50.072;7.036;2023-09-19T04:33:28;14.30;99.90
15426;DHT22;7812;50.072;7.036;2023-09-19T04:35:54;14.30;99.90
15426;DHT22;7812;50.072;7.036;2023-09-19T04:38:20;14.30;99.90
15426;DHT22;7812;50.072;7.036;2023-09-19T04:40:47;14.30;99.90
15426;DHT22;7812;50.072;7.036;2023-09-19T04:43:13;14.30;99.90
15426;DHT22;7812;50.072;7.036;2023-09-19T04:45:39;14.30;99.90
15426;DHT22;7812;50.072;7.036;2023-09-19T04:48:07;14.30;99.90
15426;DHT22;7812;50.072;7.036;2023-09-19T04:50:34;14.20;99.90
15426;DHT22;7812;50.072;7.036;2023-09-19T04:52:59;14.30;99.90
15426;DHT22;7812;50.072;7.036;2023-09-19T04:55:26;14.20;99.90
15426;DHT22;7812;50.072;7.036;2023-09-19T04:57:52;14.30;99.90
15426;DHT22;7812;50.072;7.036;2023-09-19T05:00:20;14.30;99.90
15426;DHT22;7812;50.072;7.036;2023-09-19T05:02:51;14.30;99.90
15426;DHT22;7812;50.072;7.036;2023-09-19T05:05:18;14.30;99.90
15426;DHT22;7812;50.072;7.036;2023-09-19T05:07:45;14.30;99.90
15426;DHT22;7812;50.072;7.036;2023-09-19T05:10:11;14.30;99.90
15426;DHT22;7812;50.072;7.036;2023-09-19T05:12:41;14.30;99.90
15426;DHT22;7812;50.072;7.036;2023-09-19T05:15:07;14.30;99.90
15426;DHT22;7812;50.072;7.036;2023-09-19T05:17:34;14.30;99.90
15426;DHT22;7812;50.072;7.036;2023-09-19T05:20:03;14.30;99.90
15426;DHT22;7812;50.072;7.036;2023-09-19T05:25:27;14.30;99.90
15426;DHT22;7812;50.072;7.036;2023-09-19T05:27:58;14.30;99.90
15426;DHT22;7812;50.072;7.036;2023-09-19T05:30:25;14.30;99.90
15426;DHT22;7812;50.072;7.036;2023-09-19T05:32:53;14.30;99.90
15426;DHT22;7812;50.072;7.036;2023-09-19T05:35:19;14.30;99.90
15426;DHT22;7812;50.072;7.036;2023-09-19T05:37:47;14.30;99.90
15426;DHT22;7812;50.072;7.036;2023-09-19T05:40:17;14.30;99.90
15426;DHT22;7812;50.072;7.036;2023-09-19T05:42:43;14.30;99.90
15426;DHT22;7812;50.072;7.036;2023-09-19T05:45:10;14.20;99.90
15426;DHT22;7812;50.072;7.036;2023-09-19T05:47:42;14.20;99.90
15426;DHT22;7812;50.072;7.036;2023-09-19T05:50:11;14.20;99.90
15426;DHT22;7812;50.072;7.036;2023-09-19T05:52:37;14.20;99.90
15426;DHT22;7812;50.072;7.036;2023-09-19T05:55:06;14.20;99.90
15426;DHT22;7812;50.072;7.036;2023-09-19T05:57:33;14.20;99.90
15426;DHT22;7812;50.072;7.036;2023-09-19T05:59:59;14.20;99.90
15426;DHT22;7812;50.072;7.036;2023-09-19T06:02:25;14.20;99.90
15426;DHT22;7812;50.072;7.036;2023-09-19T06:04:56;14.20;99.90
15426;DHT22;7812;50.072;7.036;2023-09-19T06:07:26;14.30;99.90
15426;DHT22;7812;50.072;7.036;2023-09-19T06:09:53;14.30;99.90
15426;DHT22;7812;50.072;7.036;2023-09-19T06:12:19;14.30;99.90
15426;DHT22;7812;50.072;7.036;2023-09-19T06:14:45;14.40;99.90
15426;DHT22;7812;50.072;7.036;2023-09-19T06:17:10;14.40;99.90
15426;DHT22;7812;50.072;7.036;2023-09-19T06:19:36;14.40;99.90
15426;DHT22;7812;50.072;7.036;2023-09-19T06:22:02;14.50;99.90
15426;DHT22;7812;50.072;7.036;2023-09-19T06:24:28;14.50;99.90
15426;DHT22;7812;50.072;7.036;2023-09-19T06:26:53;14.50;99.90
15426;DHT22;7812;50.072;7.036;2023-09-19T06:29:20;14.50;99.90
15426;DHT22;7812;50.072;7.036;2023-09-19T06:31:48;14.50;99.90
15426;DHT22;7812;50.072;7.036;2023-09-19T06:34:14;14.50;99.90
15426;DHT22;7812;50.072;7.036;2023-09-19T06:36:41;14.50;99.90
15426;DHT22;7812;50.072;7.036;2023-09-19T06:39:07;14.50;99.90
15426;DHT22;7812;50.072;7.036;2023-09-19T06:41:37;14.60;99.90
15426;DHT22;7812;50.072;7.036;2023-09-19T06:44:04;14.70;99.90
15426;DHT22;7812;50.072;7.036;2023-09-19T06:46:30;14.80;99.90
15426;DHT22;7812;50.072;7.036;2023-09-19T06:49:00;14.90;99.90
15426;DHT22;7812;50.072;7.036;2023-09-19T06:51:26;15.00;99.90
15426;DHT22;7812;50.072;7.036;2023-09-19T06:53:52;15.10;99.90
15426;DHT22;7812;50.072;7.036;2023-09-19T06:56:19;15.40;99.90
15426;DHT22;7812;50.072;7.036;2023-09-19T06:58:48;15.50;99.90
15426;DHT22;7812;50.072;7.036;2023-09-19T07:01:14;15.50;99.90
15426;DHT22;7812;50.072;7.036;2023-09-19T07:03:40;15.40;99.90
15426;DHT22;7812;50.072;7.036;2023-09-19T07:06:06;15.30;99.90
15426;DHT22;7812;50.072;7.036;2023-09-19T07:08:32;15.40;99.90
15426;DHT22;7812;50.072;7.036;2023-09-19T07:10:58;15.50;99.90
15426;DHT22;7812;50.072;7.036;2023-09-19T07:13:23;15.80;99.90
15426;DHT22;7812;50.072;7.036;2023-09-19T07:15:50;15.90;99.90
15426;DHT22;7812;50.072;7.036;2023-09-19T07:18:17;15.70;99.90
15426;DHT22;7812;50.072;7.036;2023-09-19T07:20:44;15.90;99.90
15426;DHT22;7812;50.072;7.036;2023-09-19T07:23:19;16.40;99.90
15426;DHT22;7812;50.072;7.036;2023-09-19T07:25:46;16.30;99.90
15426;DHT22;7812;50.072;7.036;2023-09-19T07:28:12;16.30;99.90
15426;DHT22;7812;50.072;7.036;2023-09-19T07:30:38;16.80;99.90
15426;DHT22;7812;50.072;7.036;2023-09-19T07:33:05;17.20;99.90
15426;DHT22;7812;50.072;7.036;2023-09-19T07:35:31;17.20;99.90
15426;DHT22;7812;50.072;7.036;2023-09-19T07:37:57;16.90;99.90
15426;DHT22;7812;50.072;7.036;2023-09-19T07:40:24;16.60;99.90
15426;DHT22;7812;50.072;7.036;2023-09-19T07:42:52;16.50;99.90
15426;DHT22;7812;50.072;7.036;2023-09-19T07:45:18;16.50;99.90
15426;DHT22;7812;50.072;7.036;2023-09-19T07:47:46;16.50;99.90
15426;DHT22;7812;50.072;7.036;2023-09-19T07:50:13;16.40;99.90
15426;DHT22;7812;50.072;7.036;2023-09-19T07:52:38;16.70;99.90
15426;DHT22;7812;50.072;7.036;2023-09-19T07:55:06;17.00;99.90
15426;DHT22;7812;50.072;7.036;2023-09-19T07:57:36;17.40;99.90
15426;DHT22;7812;50.072;7.036;2023-09-19T08:00:03;17.40;99.90
15426;DHT22;7812;50.072;7.036;2023-09-19T08:02:39;17.30;99.90
15426;DHT22;7812;50.072;7.036;2023-09-19T08:05:06;16.90;99.90
15426;DHT22;7812;50.072;7.036;2023-09-19T08:07:39;16.50;99.90
15426;DHT22;7812;50.072;7.036;2023-09-19T08:10:06;16.90;99.90
15426;DHT22;7812;50.072;7.036;2023-09-19T08:12:43;17.30;99.90
15426;DHT22;7812;50.072;7.036;2023-09-19T08:15:13;17.90;99.90
15426;DHT22;7812;50.072;7.036;2023-09-19T08:17:39;18.40;99.90
15426;DHT22;7812;50.072;7.036;2023-09-19T08:20:12;19.00;99.90
15426;DHT22;7812;50.072;7.036;2023-09-19T08:22:53;18.70;99.90
15426;DHT22;7812;50.072;7.036;2023-09-19T08:25:22;19.10;99.90
15426;DHT22;7812;50.072;7.036;2023-09-19T08:27:49;19.80;99.90
15426;DHT22;7812;50.072;7.036;2023-09-19T08:30:21;20.40;99.90
15426;DHT22;7812;50.072;7.036;2023-09-19T08:32:50;20.30;99.90
15426;DHT22;7812;50.072;7.036;2023-09-19T08:35:16;20.10;99.90
15426;DHT22;7812;50.072;7.036;2023-09-19T08:37:45;19.80;99.90
15426;DHT22;7812;50.072;7.036;2023-09-19T08:40:11;19.50;99.90
15426;DHT22;7812;50.072;7.036;2023-09-19T08:42:55;19.50;99.90
15426;DHT22;7812;50.072;7.036;2023-09-19T08:45:26;19.20;99.90
15426;DHT22;7812;50.072;7.036;2023-09-19T08:47:56;18.90;99.90
15426;DHT22;7812;50.072;7.036;2023-09-19T08:50:28;18.60;99.90
15426;DHT22;7812;50.072;7.036;2023-09-19T08:52:56;18.40;99.90
15426;DHT22;7812;50.072;7.036;2023-09-19T08:55:27;18.50;99.90
15426;DHT22;7812;50.072;7.036;2023-09-19T08:58:00;18.80;99.90
15426;DHT22;7812;50.072;7.036;2023-09-19T09:00:28;19.10;99.90
15426;DHT22;7812;50.072;7.036;2023-09-19T09:02:55;19.50;99.90
15426;DHT22;7812;50.072;7.036;2023-09-19T09:05:23;19.10;99.90
15426;DHT22;7812;50.072;7.036;2023-09-19T09:07:50;18.50;99.90
15426;DHT22;7812;50.072;7.036;2023-09-19T09:10:20;18.80;99.90
15426;DHT22;7812;50.072;7.036;2023-09-19T09:12:51;18.40;99.90
15426;DHT22;7812;50.072;7.036;2023-09-19T09:15:19;17.90;99.90
15426;DHT22;7812;50.072;7.036;2023-09-19T09:17:50;17.70;99.90
15426;DHT22;7812;50.072;7.036;2023-09-19T09:20:17;17.60;99.90
15426;DHT22;7812;50.072;7.036;2023-09-19T09:23:04;17.80;99.90
15426;DHT22;7812;50.072;7.036;2023-09-19T09:25:57;18.70;99.90
15426;DHT22;7812;50.072;7.036;2023-09-19T09:28:26;19.80;99.90
15426;DHT22;7812;50.072;7.036;2023-09-19T09:30:54;21.00;99.90
15426;DHT22;7812;50.072;7.036;2023-09-19T09:33:20;20.70;99.90
15426;DHT22;7812;50.072;7.036;2023-09-19T09:38:22;21.90;99.90
15426;DHT22;7812;50.072;7.036;2023-09-19T09:40:53;22.00;99.90
15426;DHT22;7812;50.072;7.036;2023-09-19T09:43:31;22.30;99.90
15426;DHT22;7812;50.072;7.036;2023-09-19T09:46:16;22.40;99.90
15426;DHT22;7812;50.072;7.036;2023-09-19T09:49:01;22.80;99.90
15426;DHT22;7812;50.072;7.036;2023-09-19T09:51:57;23.00;99.90
15426;DHT22;7812;50.072;7.036;2023-09-19T09:54:26;22.50;99.90
15426;DHT22;7812;50.072;7.036;2023-09-19T09:57:09;22.50;99.90
15426;DHT22;7812;50.072;7.036;2023-09-19T09:59:56;22.10;99.90
15426;DHT22;7812;50.072;7.036;2023-09-19T10:02:41;21.80;99.90
15426;DHT22;7812;50.072;7.036;2023-09-19T10:05:17;22.00;99.90
15426;DHT22;7812;50.072;7.036;2023-09-19T10:07:52;22.10;99.90
15426;DHT22;7812;50.072;7.036;2023-09-19T10:10:34;22.10;99.90
15426;DHT22;7812;50.072;7.036;2023-09-19T10:13:14;21.80;99.90
15426;DHT22;7812;50.072;7.036;2023-09-19T10:15:46;22.00;99.90
15426;DHT22;7812;50.072;7.036;2023-09-19T10:18:20;21.00;99.90
15426;DHT22;7812;50.072;7.036;2023-09-19T10:20:47;22.00;99.90
15426;DHT22;7812;50.072;7.036;2023-09-19T10:23:15;22.20;99.90
15426;DHT22;7812;50.072;7.036;2023-09-19T10:25:48;21.40;99.90
15426;DHT22;7812;50.072;7.036;2023-09-19T10:28:16;22.40;99.90
15426;DHT22;7812;50.072;7.036;2023-09-19T10:30:46;23.20;99.90
15426;DHT22;7812;50.072;7.036;2023-09-19T10:33:23;24.00;99.90
15426;DHT22;7812;50.072;7.036;2023-09-19T10:35:52;24.50;99.90
15426;DHT22;7812;50.072;7.036;2023-09-19T10:38:24;24.30;99.90
15426;DHT22;7812;50.072;7.036;2023-09-19T10:40:54;23.90;99.90
15426;DHT22;7812;50.072;7.036;2023-09-19T10:43:21;23.90;99.90
15426;DHT22;7812;50.072;7.036;2023-09-19T10:45:51;23.80;99.90
15426;DHT22;7812;50.072;7.036;2023-09-19T10:48:19;23.70;99.90
15426;DHT22;7812;50.072;7.036;2023-09-19T10:53:46;23.30;99.90
15426;DHT22;7812;50.072;7.036;2023-09-19T10:56:24;23.10;99.90
15426;DHT22;7812;50.072;7.036;2023-09-19T10:59:12;22.60;99.90
15426;DHT22;7812;50.072;7.036;2023-09-19T11:01:48;23.90;99.90
15426;DHT22;7812;50.072;7.036;2023-09-19T11:04:23;24.10;99.90
15426;DHT22;7812;50.072;7.036;2023-09-19T11:07:09;23.70;99.90
15426;DHT22;7812;50.072;7.036;2023-09-19T11:09:54;24.50;99.90
15426;DHT22;7812;50.072;7.036;2023-09-19T11:14:56;25.60;99.90
15426;DHT22;7812;50.072;7.036;2023-09-19T11:30:42;23.70;99.90
15426;DHT22;7812;50.072;7.036;2023-09-19T11:33:30;23.30;99.90
15426;DHT22;7812;50.072;7.036;2023-09-19T11:49:27;21.70;99.90
15426;DHT22;7812;50.072;7.036;2023-09-19T11:51:56;21.40;99.90
15426;DHT22;7812;50.072;7.036;2023-09-19T11:54:22;21.90;99.90
15426;DHT22;7812;50.072;7.036;2023-09-19T11:56:51;22.70;99.90
15426;DHT22;7812;50.072;7.036;2023-09-19T11:59:24;23.20;99.90
15426;DHT22;7812;50.072;7.036;2023-09-19T12:02:04;24.10;99.90
15426;DHT22;7812;50.072;7.036;2023-09-19T12:07:09;23.10;99.90
15426;DHT22;7812;50.072;7.036;2023-09-19T12:09:42;23.30;99.90
15426;DHT22;7812;50.072;7.036;2023-09-19T12:12:19;24.50;99.90
15426;DHT22;7812;50.072;7.036;2023-09-19T12:14:51;23.90;99.90
15426;DHT22;7812;50.072;7.036;2023-09-19T12:17:18;22.90;99.90
15426;DHT22;7812;50.072;7.036;2023-09-19T12:20:02;22.30;99.90
15426;DHT22;7812;50.072;7.036;2023-09-19T12:22:42;21.40;99.90
15426;DHT22;7812;50.072;7.036;2023-09-19T12:25:09;21.30;99.90
15426;DHT22;7812;50.072;7.036;2023-09-19T12:27:44;22.10;99.90
15426;DHT22;7812;50.072;7.036;2023-09-19T12:30:12;22.40;99.90
15426;DHT22;7812;50.072;7.036;2023-09-19T12:32:43;22.90;99.90
15426;DHT22;7812;50.072;7.036;2023-09-19T12:35:10;23.90;99.90
15426;DHT22;7812;50.072;7.036;2023-09-19T12:37:53;24.70;99.90
15426;DHT22;7812;50.072;7.036;2023-09-19T12:40:21;24.40;99.90
15426;DHT22;7812;50.072;7.036;2023-09-19T12:42:48;23.80;99.90
15426;DHT22;7812;50.072;7.036;2023-09-19T12:45:15;23.10;99.90
15426;DHT22;7812;50.072;7.036;2023-09-19T12:51:08;21.60;99.90
15426;DHT22;7812;50.072;7.036;2023-09-19T12:53:46;21.90;99.90
15426;DHT22;7812;50.072;7.036;2023-09-19T12:56:14;22.00;99.90
15426;DHT22;7812;50.072;7.036;2023-09-19T13:01:16;22.20;99.90
15426;DHT22;7812;50.072;7.036;2023-09-19T13:03:42;21.80;99.90
15426;DHT22;7812;50.072;7.036;2023-09-19T13:06:08;21.60;99.90
15426;DHT22;7812;50.072;7.036;2023-09-19T13:13:42;21.60;99.90
15426;DHT22;7812;50.072;7.036;2023-09-19T13:16:10;22.20;99.90
15426;DHT22;7812;50.072;7.036;2023-09-19T13:18:50;22.30;99.90
15426;DHT22;7812;50.072;7.036;2023-09-19T13:21:31;22.30;99.90
15426;DHT22;7812;50.072;7.036;2023-09-19T13:24:24;22.30;99.90
15426;DHT22;7812;50.072;7.036;2023-09-19T13:26:53;22.50;99.90
15426;DHT22;7812;50.072;7.036;2023-09-19T13:29:19;22.50;99.90
15426;DHT22;7812;50.072;7.036;2023-09-19T13:31:54;22.70;99.90
15426;DHT22;7812;50.072;7.036;2023-09-19T13:34:20;22.90;99.90
15426;DHT22;7812;50.072;7.036;2023-09-19T13:36:46;22.90;99.90
15426;DHT22;7812;50.072;7.036;2023-09-19T13:39:14;23.10;99.90
15426;DHT22;7812;50.072;7.036;2023-09-19T13:41:41;23.10;99.90
15426;DHT22;7812;50.072;7.036;2023-09-19T13:44:08;23.10;99.90
15426;DHT22;7812;50.072;7.036;2023-09-19T13:46:36;23.40;99.90
15426;DHT22;7812;50.072;7.036;2023-09-19T13:49:02;23.30;99.90
15426;DHT22;7812;50.072;7.036;2023-09-19T13:51:31;22.90;99.90
15426;DHT22;7812;50.072;7.036;2023-09-19T13:54:00;22.40;99.90
15426;DHT22;7812;50.072;7.036;2023-09-19T13:56:26;22.50;99.90
15426;DHT22;7812;50.072;7.036;2023-09-19T13:58:56;22.70;99.90
15426;DHT22;7812;50.072;7.036;2023-09-19T14:01:22;22.90;99.90
15426;DHT22;7812;50.072;7.036;2023-09-19T14:03:48;22.50;99.90
15426;DHT22;7812;50.072;7.036;2023-09-19T14:06:15;22.70;99.90
15426;DHT22;7812;50.072;7.036;2023-09-19T14:08:42;22.90;99.90
15426;DHT22;7812;50.072;7.036;2023-09-19T14:11:08;22.60;99.90
15426;DHT22;7812;50.072;7.036;2023-09-19T14:13:34;22.50;99.90
15426;DHT22;7812;50.072;7.036;2023-09-19T14:16:07;22.40;99.90
15426;DHT22;7812;50.072;7.036;2023-09-19T14:18:34;22.40;99.90
15426;DHT22;7812;50.072;7.036;2023-09-19T14:21:06;22.30;99.90
15426;DHT22;7812;50.072;7.036;2023-09-19T14:23:39;22.30;99.90
15426;DHT22;7812;50.072;7.036;2023-09-19T14:26:05;22.00;99.90
15426;DHT22;7812;50.072;7.036;2023-09-19T14:28:32;21.80;99.90
15426;DHT22;7812;50.072;7.036;2023-09-19T14:31:04;21.90;99.90
15426;DHT22;7812;50.072;7.036;2023-09-19T14:33:31;21.50;99.90
15426;DHT22;7812;50.072;7.036;2023-09-19T14:35:57;21.40;99.90
15426;DHT22;7812;50.072;7.036;2023-09-19T14:38:22;21.30;99.90
15426;DHT22;7812;50.072;7.036;2023-09-19T14:40:48;21.50;99.90
15426;DHT22;7812;50.072;7.036;2023-09-19T14:43:15;21.50;99.90
15426;DHT22;7812;50.072;7.036;2023-09-19T14:45:41;21.50;99.90
15426;DHT22;7812;50.072;7.036;2023-09-19T14:48:07;21.40;99.90
15426;DHT22;7812;50.072;7.036;2023-09-19T14:50:33;21.20;99.90
15426;DHT22;7812;50.072;7.036;2023-09-19T14:52:59;21.10;99.90
15426;DHT22;7812;50.072;7.036;2023-09-19T14:55:28;21.20;99.90
15426;DHT22;7812;50.072;7.036;2023-09-19T14:58:08;21.10;99.90
15426;DHT22;7812;50.072;7.036;2023-09-19T15:00:35;20.90;99.90
15426;DHT22;7812;50.072;7.036;2023-09-19T15:03:01;20.70;99.90
15426;DHT22;7812;50.072;7.036;2023-09-19T15:05:27;20.50;99.90
15426;DHT22;7812;50.072;7.036;2023-09-19T15:07:56;20.40;99.90
15426;DHT22;7812;50.072;7.036;2023-09-19T15:10:23;20.40;99.90
15426;DHT22;7812;50.072;7.036;2023-09-19T15:12:50;20.40;99.90
15426;DHT22;7812;50.072;7.036;2023-09-19T15:15:16;20.40;99.90
15426;DHT22;7812;50.072;7.036;2023-09-19T15:17:41;20.50;99.90
15426;DHT22;7812;50.072;7.036;2023-09-19T15:20:07;20.50;99.90
15426;DHT22;7812;50.072;7.036;2023-09-19T15:22:37;20.70;99.90
15426;DHT22;7812;50.072;7.036;2023-09-19T15:25:09;20.70;99.90
15426;DHT22;7812;50.072;7.036;2023-09-19T15:27:35;20.70;99.90
15426;DHT22;7812;50.072;7.036;2023-09-19T15:30:02;20.80;99.90
15426;DHT22;7812;50.072;7.036;2023-09-19T15:32:28;20.90;99.90
15426;DHT22;7812;50.072;7.036;2023-09-19T15:34:54;20.90;99.90
15426;DHT22;7812;50.072;7.036;2023-09-19T15:37:20;20.90;99.90
15426;DHT22;7812;50.072;7.036;2023-09-19T15:39:47;20.80;99.90
15426;DHT22;7812;50.072;7.036;2023-09-19T15:42:12;20.70;99.90
15426;DHT22;7812;50.072;7.036;2023-09-19T15:44:38;20.50;99.90
15426;DHT22;7812;50.072;7.036;2023-09-19T15:47:05;20.40;99.90
15426;DHT22;7812;50.072;7.036;2023-09-19T15:49:30;20.30;99.90
15426;DHT22;7812;50.072;7.036;2023-09-19T15:51:56;20.40;99.90
15426;DHT22;7812;50.072;7.036;2023-09-19T15:54:22;20.30;99.90
15426;DHT22;7812;50.072;7.036;2023-09-19T15:56:50;20.20;99.90
15426;DHT22;7812;50.072;7.036;2023-09-19T15:59:17;20.20;99.90
15426;DHT22;7812;50.072;7.036;2023-09-19T16:01:43;20.10;99.90
15426;DHT22;7812;50.072;7.036;2023-09-19T16:04:10;20.20;99.90
15426;DHT22;7812;50.072;7.036;2023-09-19T16:06:36;20.30;99.90
15426;DHT22;7812;50.072;7.036;2023-09-19T16:09:03;20.40;99.90
15426;DHT22;7812;50.072;7.036;2023-09-19T16:11:32;20.20;99.90
15426;DHT22;7812;50.072;7.036;2023-09-19T16:13:58;20.20;99.90
15426;DHT22;7812;50.072;7.036;2023-09-19T16:16:25;20.10;99.90
15426;DHT22;7812;50.072;7.036;2023-09-19T16:18:56;20.00;99.90
15426;DHT22;7812;50.072;7.036;2023-09-19T16:21:27;19.90;99.90
15426;DHT22;7812;50.072;7.036;2023-09-19T16:23:54;19.90;99.90
15426;DHT22;7812;50.072;7.036;2023-09-19T16:26:20;19.80;99.90
15426;DHT22;7812;50.072;7.036;2023-09-19T16:28:47;19.70;99.90
15426;DHT22;7812;50.072;7.036;2023-09-19T16:31:13;19.60;99.90
15426;DHT22;7812;50.072;7.036;2023-09-19T16:33:40;19.60;99.90
15426;DHT22;7812;50.072;7.036;2023-09-19T16:36:13;19.50;99.90
15426;DHT22;7812;50.072;7.036;2023-09-19T16:38:41;19.40;99.90
15426;DHT22;7812;50.072;7.036;2023-09-19T16:41:07;19.40;99.90
15426;DHT22;7812;50.072;7.036;2023-09-19T16:43:37;19.30;99.90
15426;DHT22;7812;50.072;7.036;2023-09-19T16:46:04;19.30;99.90
15426;DHT22;7812;50.072;7.036;2023-09-19T16:48:34;19.30;99.90
15426;DHT22;7812;50.072;7.036;2023-09-19T16:51:01;19.20;99.90
15426;DHT22;7812;50.072;7.036;2023-09-19T16:53:31;19.20;99.90
15426;DHT22;7812;50.072;7.036;2023-09-19T16:58:30;19.20;99.90
15426;DHT22;7812;50.072;7.036;2023-09-19T17:00:59;19.10;99.90
15426;DHT22;7812;50.072;7.036;2023-09-19T17:03:25;19.10;99.90